Time;durP1;ratioP1;P1;durP2;ratioP2;P2;SDS_P1;SDS_P2;PMS_P1;PMS_P2;Temp;Humidity;BMP_temperature;BMP_pressure;BME280_temperature;BME280_humidity;BME280_pressure;Samples;Min_cycle;Max_cycle;Signal;HPM_P1;HPM_P2
2021/03/31 00:01:22;;;;;;;10.55;4.85;;;;;;;27.00;23.66;158252.28;1721057;83;21177;-83
2021/03/31 00:03:54;;;;;;;9.73;5.35;;;;;;;26.92;23.61;158230.98;1693983;85;21376;-83
2021/03/31 00:06:27;;;;;;;13.00;5.78;;;;;;;26.84;23.73;158209.73;1714129;83;21356;-83
2021/03/31 00:09:00;;;;;;;10.70;5.08;;;;;;;26.80;23.74;158199.09;1721368;83;21870;-83
2021/03/31 00:11:33;;;;;;;11.33;5.55;;;;;;;26.78;23.85;158195.13;1723112;82;21316;-83
2021/03/31 00:14:05;;;;;;;12.25;6.10;;;;;;;26.78;23.74;158195.13;1722970;83;21331;-83
2021/03/31 00:16:38;;;;;;;8.80;5.33;;;;;;;26.84;23.69;158211.09;1721575;82;21779;-83
2021/03/31 00:19:12;;;;;;;12.13;5.42;;;;;;;26.82;23.68;158205.77;1722417;83;21208;-83
2021/03/31 00:21:45;;;;;;;9.28;5.72;;;;;;;26.73;23.54;158181.86;1719187;82;21176;-83
2021/03/31 00:24:17;;;;;;;8.75;5.55;;;;;;;26.71;23.62;158175.17;1707654;83;21166;-83
2021/03/31 00:26:49;;;;;;;12.40;5.67;;;;;;;26.65;23.80;158159.25;1705152;83;21894;-84
2021/03/31 00:29:22;;;;;;;10.65;6.03;;;;;;;26.68;23.81;158167.19;1704701;82;21669;-83
2021/03/31 00:31:54;;;;;;;13.83;5.92;;;;;;;26.74;23.82;158184.47;1719675;82;21209;-83
2021/03/31 00:34:27;;;;;;;10.32;5.80;;;;;;;26.73;23.84;158181.86;1704346;83;21672;-84
2021/03/31 00:36:59;;;;;;;9.18;5.80;;;;;;;26.76;23.77;158188.50;1714812;82;21328;-83
2021/03/31 00:39:32;;;;;;;14.00;6.85;;;;;;;26.73;23.79;158181.86;1710021;83;21696;-83
2021/03/31 00:42:05;;;;;;;11.73;6.40;;;;;;;26.67;23.93;158164.58;1711363;83;21835;-83
2021/03/31 00:44:37;;;;;;;13.65;6.53;;;;;;;26.61;23.78;158149.97;1709791;83;21210;-84
2021/03/31 00:47:10;;;;;;;15.30;7.00;;;;;;;26.59;23.87;158143.28;1685495;83;21313;-83
2021/03/31 00:49:42;;;;;;;12.80;6.90;;;;;;;26.65;23.88;158159.25;1710036;83;21178;-82
2021/03/31 00:52:15;;;;;;;11.12;6.20;;;;;;;26.59;23.77;158143.28;1709248;83;21806;-83
2021/03/31 00:54:48;;;;;;;11.00;6.00;;;;;;;26.58;23.91;158141.98;1710066;83;21181;-83
2021/03/31 00:57:20;;;;;;;12.33;6.25;;;;;;;26.62;23.89;158151.27;1708198;83;21218;-83
2021/03/31 00:59:53;;;;;;;11.65;6.30;;;;;;;26.74;23.84;158184.47;1711015;83;21335;-84
2021/03/31 01:02:26;;;;;;;12.05;6.55;;;;;;;26.79;23.70;158197.78;1714917;83;21794;-83
2021/03/31 01:04:59;;;;;;;11.83;6.85;;;;;;;26.80;23.83;158200.44;1712190;82;21198;-83
2021/03/31 01:07:31;;;;;;;12.35;6.25;;;;;;;26.78;23.87;158193.81;1707154;83;21304;-82
2021/03/31 01:10:04;;;;;;;13.08;6.92;;;;;;;26.74;23.85;158183.16;1696060;82;21237;-83
2021/03/31 01:12:44;;;;;;;12.95;6.65;;;;;;;26.76;23.83;158188.50;1710804;83;21827;-83
2021/03/31 01:15:20;;;;;;;13.85;6.78;;;;;;;26.75;23.89;158185.83;1709511;83;21820;-83
2021/03/31 01:22:50;;;;;;;13.43;6.37;;;;;;;26.72;24.07;158177.84;1713287;83;21185;-82
2021/03/31 01:25:46;;;;;;;13.32;6.67;;;;;;;26.77;24.02;158192.47;1720307;83;21680;-84
2021/03/31 01:29:17;;;;;;;11.65;6.22;;;;;;;26.73;24.16;158181.86;1713547;82;21447;-84
2021/03/31 01:32:32;;;;;;;13.62;6.08;;;;;;;26.66;24.17;158161.92;1720273;82;21313;-83
2021/03/31 01:35:16;;;;;;;10.70;6.03;;;;;;;26.71;24.16;158175.17;1717455;83;21875;-83
2021/03/31 01:37:53;;;;;;;11.75;6.42;;;;;;;26.74;24.23;158184.47;1717900;82;21488;-83
2021/03/31 01:40:27;;;;;;;10.55;6.47;;;;;;;26.70;24.30;158173.88;1720316;83;21150;-83
2021/03/31 01:43:06;;;;;;;11.75;6.45;;;;;;;26.74;24.28;158183.16;1677085;85;21189;-83
2021/03/31 01:45:39;;;;;;;13.78;6.47;;;;;;;26.75;24.24;158187.12;1723696;82;21315;-83
2021/03/31 01:48:17;;;;;;;13.13;6.90;;;;;;;26.81;24.27;158201.75;1693931;83;21367;-83
2021/03/31 01:50:53;;;;;;;10.38;6.50;;;;;;;26.77;24.26;158192.47;1722793;83;21237;-83
2021/03/31 01:53:26;;;;;;;11.85;7.17;;;;;;;26.79;24.29;158197.78;1694214;83;21225;-84
2021/03/31 01:55:58;;;;;;;10.68;6.60;;;;;;;26.72;24.40;158177.84;1721495;83;21274;-83
2021/03/31 01:58:33;;;;;;;15.38;7.15;;;;;;;26.73;24.41;158181.86;1717911;82;21165;-83
2021/03/31 02:01:07;;;;;;;13.05;6.33;;;;;;;26.75;24.45;158187.12;1695878;82;21374;-84
2021/03/31 02:03:40;;;;;;;13.45;7.28;;;;;;;26.76;24.38;158188.50;1720442;82;21379;-83
2021/03/31 02:06:13;;;;;;;12.00;6.78;;;;;;;26.72;24.54;158177.84;1721876;82;21262;-84
2021/03/31 02:08:46;;;;;;;10.93;6.60;;;;;;;26.77;24.70;158192.47;1721481;82;21227;-83
2021/03/31 02:11:20;;;;;;;16.62;8.38;;;;;;;26.70;24.69;158172.52;1723904;82;21418;-83
2021/03/31 02:13:53;;;;;;;12.15;6.58;;;;;;;27.24;24.38;158317.45;1685200;85;21178;-83
2021/03/31 02:16:26;;;;;;;12.23;6.75;;;;;;;26.78;24.79;158193.81;1721460;82;21239;-83
2021/03/31 02:18:58;;;;;;;14.18;6.78;;;;;;;26.73;25.12;158180.50;1723234;83;21188;-83
2021/03/31 02:21:31;;;;;;;14.05;6.62;;;;;;;26.65;25.46;158160.56;1722904;83;21212;-82
2021/03/31 02:24:04;;;;;;;13.50;6.80;;;;;;;26.58;25.54;158141.98;1635570;85;21352;-82
2021/03/31 02:26:36;;;;;;;12.03;6.92;;;;;;;26.49;26.99;158115.41;1674854;85;21839;-82
2021/03/31 02:29:09;;;;;;;13.15;6.95;;;;;;;26.29;26.41;158063.53;1634699;85;21240;-82
2021/03/31 02:31:44;;;;;;;13.88;6.95;;;;;;;26.05;26.77;157998.42;1656191;85;21266;-82
2021/03/31 02:34:17;;;;;;;11.33;6.53;;;;;;;25.83;27.28;157941.34;1634676;86;21347;-82
2021/03/31 02:36:50;;;;;;;10.30;5.87;;;;;;;25.74;27.85;157916.05;1603735;86;21765;-82
2021/03/31 02:39:22;;;;;;;13.20;7.15;;;;;;;25.66;27.41;157896.13;1686616;83;21332;-82
2021/03/31 02:41:57;;;;;;;12.65;7.08;;;;;;;25.66;27.36;157896.13;1691365;82;21388;-82
2021/03/31 02:44:30;;;;;;;14.55;7.03;;;;;;;25.68;27.45;157900.13;1674738;83;21379;-82
2021/03/31 02:47:03;;;;;;;10.88;6.37;;;;;;;25.79;27.33;157929.41;1670965;84;21215;-83
2021/03/31 02:49:37;;;;;;;11.97;6.92;;;;;;;25.85;27.14;157945.31;1674985;83;21225;-82
2021/03/31 02:52:09;;;;;;;11.85;7.35;;;;;;;25.80;27.20;157933.36;1681063;83;21344;-82
2021/03/31 02:54:42;;;;;;;11.55;6.92;;;;;;;25.84;27.43;157944.00;1670925;84;21254;-83
2021/03/31 02:57:15;;;;;;;15.75;7.50;;;;;;;25.84;27.24;157944.00;1668974;84;21218;-79
2021/03/31 02:59:49;;;;;;;12.60;6.60;;;;;;;25.69;27.81;157904.09;1673414;83;21174;-79
2021/03/31 03:02:22;;;;;;;15.38;6.83;;;;;;;25.58;29.83;157873.53;1684325;83;21194;-78
2021/03/31 03:04:54;;;;;;;10.03;6.60;;;;;;;25.37;29.28;157817.78;1708400;83;21800;-79
2021/03/31 03:07:26;;;;;;;13.32;7.33;;;;;;;25.18;29.13;157767.36;1698965;83;21340;-78
2021/03/31 03:10:00;;;;;;;14.13;7.85;;;;;;;24.97;29.19;157710.22;1679773;83;21319;-78
2021/03/31 03:12:48;;;;;;;14.28;7.60;;;;;;;24.80;29.64;157666.44;1688677;83;21744;-78
2021/03/31 03:15:21;;;;;;;11.63;6.87;;;;;;;24.73;29.83;157647.88;1695108;83;21226;-79
2021/03/31 03:17:54;;;;;;;13.53;7.05;;;;;;;24.80;30.02;157665.12;1667584;83;21297;-79
2021/03/31 03:20:27;;;;;;;15.40;6.97;;;;;;;24.90;29.60;157691.67;1672535;83;21178;-79
2021/03/31 03:22:59;;;;;;;12.18;7.00;;;;;;;25.03;29.47;157726.17;1691150;83;21234;-79
2021/03/31 03:25:31;;;;;;;12.40;6.90;;;;;;;25.10;29.36;157746.09;1718457;82;21359;-79
2021/03/31 03:28:05;;;;;;;15.13;7.17;;;;;;;25.19;29.36;157768.67;1717296;83;21161;-79
2021/03/31 03:30:37;;;;;;;11.78;7.10;;;;;;;25.28;29.25;157792.59;1717820;83;21362;-79
2021/03/31 03:33:10;;;;;;;13.48;7.47;;;;;;;25.39;29.06;157823.11;1716857;83;22465;-79
2021/03/31 03:35:42;;;;;;;11.08;6.70;;;;;;;25.48;28.84;157845.69;1718484;82;21861;-79
2021/03/31 03:38:15;;;;;;;13.55;7.62;;;;;;;25.52;28.74;157856.33;1723115;82;21339;-80
2021/03/31 03:40:48;;;;;;;12.28;6.83;;;;;;;25.64;28.77;157889.50;1742401;82;21798;-79
2021/03/31 03:43:20;;;;;;;14.53;8.10;;;;;;;25.73;28.75;157914.75;1717668;82;21308;-79
2021/03/31 03:45:52;;;;;;;13.38;7.30;;;;;;;25.85;28.78;157945.31;1719613;82;21817;-80
2021/03/31 03:48:24;;;;;;;16.07;7.37;;;;;;;25.87;28.78;157951.94;1717458;83;21330;-80
2021/03/31 03:50:57;;;;;;;11.15;6.75;;;;;;;25.98;28.58;157979.84;1718037;82;21299;-81
2021/03/31 03:53:29;;;;;;;10.35;6.58;;;;;;;26.06;28.41;158001.08;1693512;82;21680;-80
2021/03/31 03:56:05;;;;;;;12.50;7.22;;;;;;;26.09;28.48;158009.06;1721148;82;21366;-80
2021/03/31 03:58:37;;;;;;;13.53;7.67;;;;;;;26.07;28.51;158003.75;1717972;83;21858;-80
2021/03/31 04:01:10;;;;;;;15.78;7.30;;;;;;;26.24;28.53;158050.23;1716829;82;21161;-80
2021/03/31 04:03:43;;;;;;;16.27;7.58;;;;;;;26.33;28.43;158072.83;1717085;83;21193;-80
2021/03/31 04:06:16;;;;;;;12.00;6.67;;;;;;;26.40;28.27;158091.41;1715600;83;21177;-80
2021/03/31 04:08:48;;;;;;;13.18;7.45;;;;;;;26.42;28.08;158096.78;1717485;83;21834;-78
2021/03/31 04:11:20;;;;;;;13.53;6.85;;;;;;;26.39;28.20;158090.09;1717621;83;21314;-79
2021/03/31 04:13:54;;;;;;;14.05;7.87;;;;;;;26.36;28.14;158082.13;1719762;82;21269;-79
2021/03/31 04:16:26;;;;;;;14.83;8.03;;;;;;;26.42;28.04;158096.78;1718169;83;21232;-78
2021/03/31 04:19:06;;;;;;;13.25;7.85;;;;;;;26.46;28.01;158107.44;1717893;83;21759;-79
2021/03/31 04:21:38;;;;;;;15.28;7.85;;;;;;;26.45;28.07;158104.77;1717493;83;21842;-78
2021/03/31 04:24:15;;;;;;;13.13;7.15;;;;;;;26.49;28.12;158115.41;1717512;83;21232;-80
2021/03/31 04:26:48;;;;;;;13.98;7.05;;;;;;;26.60;28.12;158147.30;1709247;82;21343;-79
2021/03/31 04:29:20;;;;;;;10.08;6.62;;;;;;;26.62;28.19;158152.58;1688627;83;21756;-80
2021/03/31 04:31:52;;;;;;;12.98;7.53;;;;;;;26.58;28.51;158140.63;1708034;83;21196;-80
2021/03/31 04:34:25;;;;;;;11.28;7.17;;;;;;;26.57;28.38;158139.31;1708007;84;21214;-79
2021/03/31 04:36:58;;;;;;;12.10;7.40;;;;;;;26.46;28.63;158108.73;1709404;83;21237;-78
2021/03/31 04:39:30;;;;;;;12.03;7.10;;;;;;;26.40;28.70;158091.41;1704191;84;21359;-79
2021/03/31 04:42:02;;;;;;;11.83;6.70;;;;;;;26.33;28.95;158072.83;1708902;84;21214;-80
2021/03/31 04:44:35;;;;;;;12.37;6.97;;;;;;;26.35;28.96;158078.16;1697825;82;21328;-76
2021/03/31 04:47:07;;;;;;;14.07;7.90;;;;;;;26.30;29.23;158064.84;1696128;82;21175;-80
2021/03/31 04:49:40;;;;;;;11.93;7.28;;;;;;;26.31;29.38;158067.50;1686501;82;21485;-83
2021/03/31 04:52:14;;;;;;;13.60;6.65;;;;;;;26.25;29.40;158051.59;1690259;82;22387;-81
2021/03/31 04:54:46;;;;;;;13.75;6.97;;;;;;;26.16;29.52;158029.00;1691256;82;21412;-82
2021/03/31 04:57:19;;;;;;;13.05;7.83;;;;;;;26.09;29.74;158010.42;1691586;82;21701;-85
2021/03/31 04:59:51;;;;;;;12.95;7.03;;;;;;;26.18;29.57;158034.31;1687911;81;21728;-87
2021/03/31 05:02:24;;;;;;;11.20;6.83;;;;;;;26.21;29.53;158040.94;1688291;82;21208;-86
2021/03/31 05:04:56;;;;;;;12.23;6.85;;;;;;;26.24;29.53;158048.92;1685933;82;21311;-88
2021/03/31 05:07:30;;;;;;;11.30;6.55;;;;;;;26.35;29.34;158079.45;1690899;82;21241;-86
2021/03/31 05:10:03;;;;;;;13.35;6.65;;;;;;;26.47;29.41;158110.09;1695701;82;21326;-85
2021/03/31 05:12:35;;;;;;;10.88;6.65;;;;;;;26.56;29.29;158135.34;1690637;82;21331;-85
2021/03/31 05:15:10;;;;;;;14.03;6.72;;;;;;;26.66;29.19;158163.22;1686695;82;22347;-86
2021/03/31 05:17:44;;;;;;;11.38;6.58;;;;;;;26.80;29.00;158200.44;1688472;82;21209;-86
2021/03/31 05:20:16;;;;;;;12.43;7.00;;;;;;;26.69;29.14;158169.86;1668050;84;21383;-78
2021/03/31 05:22:49;;;;;;;15.00;7.92;;;;;;;26.73;29.02;158180.50;1710074;82;21267;-85
2021/03/31 05:25:21;;;;;;;12.40;7.72;;;;;;;26.67;29.24;158165.89;1709453;83;21150;-79
2021/03/31 05:27:56;;;;;;;13.85;7.03;;;;;;;26.73;29.07;158181.86;1709689;83;21681;-79
2021/03/31 05:33:37;;;;;;;15.32;7.90;;;;;;;26.75;28.98;158187.12;1709593;84;21387;-80
2021/03/31 05:36:11;;;;;;;11.78;7.35;;;;;;;26.74;29.16;158184.47;1709612;84;21815;-80
2021/03/31 05:38:44;;;;;;;15.90;7.60;;;;;;;26.71;29.08;158175.17;1710687;84;21201;-81
2021/03/31 05:41:16;;;;;;;12.90;7.37;;;;;;;26.71;28.90;158176.53;1716947;83;21285;-80
2021/03/31 05:43:49;;;;;;;14.07;8.30;;;;;;;26.66;28.81;158161.92;1705131;83;21269;-81
2021/03/31 05:46:22;;;;;;;17.45;7.20;;;;;;;26.68;28.99;158167.19;1722557;82;21211;-80
2021/03/31 05:48:54;;;;;;;12.43;7.03;;;;;;;26.73;28.95;158181.86;1710492;82;21245;-80
2021/03/31 05:51:27;;;;;;;10.15;6.67;;;;;;;26.71;29.07;158175.17;1709596;84;21253;-80
2021/03/31 05:54:00;;;;;;;10.65;6.80;;;;;;;26.95;29.11;158240.33;1709372;84;22529;-80
2021/03/31 05:56:33;;;;;;;14.10;6.78;;;;;;;27.38;28.77;158353.34;1711984;84;21805;-80
2021/03/31 05:59:06;;;;;;;9.33;6.30;;;;;;;27.12;28.92;158285.55;1712613;84;21759;-80
2021/03/31 06:01:39;;;;;;;12.23;6.58;;;;;;;27.11;28.91;158282.89;1712651;83;21870;-80
2021/03/31 06:04:12;;;;;;;9.90;6.37;;;;;;;27.22;28.86;158310.81;1711023;83;21225;-80
2021/03/31 06:06:45;;;;;;;13.08;6.90;;;;;;;27.20;28.89;158305.50;1711132;83;21715;-79
2021/03/31 06:09:18;;;;;;;15.18;7.30;;;;;;;27.25;28.75;158318.81;1716719;82;21368;-80
2021/03/31 06:11:54;;;;;;;13.68;7.60;;;;;;;27.19;28.89;158302.84;1712323;84;21153;-80
2021/03/31 06:14:34;;;;;;;13.48;7.45;;;;;;;27.19;29.06;158304.19;1713574;83;21253;-80
2021/03/31 06:17:11;;;;;;;14.33;7.45;;;;;;;27.16;29.02;158294.84;1715448;83;21197;-79
2021/03/31 06:19:45;;;;;;;15.03;7.47;;;;;;;27.22;29.25;158310.81;1715375;83;21407;-80
2021/03/31 06:22:41;;;;;;;14.07;7.75;;;;;;;27.32;29.16;158338.70;1715358;83;21346;-80
2021/03/31 06:25:18;;;;;;;15.13;7.97;;;;;;;27.37;29.06;158352.03;1715159;83;21383;-80
2021/03/31 06:27:55;;;;;;;11.08;7.53;;;;;;;27.48;28.96;158382.64;1709791;83;21177;-81
2021/03/31 06:30:30;;;;;;;17.20;8.20;;;;;;;27.56;29.17;158402.53;1716321;83;21345;-81
2021/03/31 06:33:03;;;;;;;12.93;8.10;;;;;;;27.67;29.13;158431.84;1726677;82;21315;-80
2021/03/31 06:35:36;;;;;;;15.00;7.80;;;;;;;27.57;28.83;158406.56;1667936;84;21234;-81
2021/03/31 06:38:16;;;;;;;15.48;8.48;;;;;;;27.46;29.10;158374.64;1696440;84;21193;-80
2021/03/31 06:40:45;;;;;;;12.70;8.33;;;;;;;27.39;29.08;158357.36;1694918;84;22348;-81
2021/03/31 06:43:38;;;;;;;16.15;8.80;;;;;;;27.39;29.35;158356.00;1697171;84;21214;-80
2021/03/31 06:46:18;;;;;;;13.28;7.60;;;;;;;27.42;29.29;158363.98;1665406;85;21185;-81
2021/03/31 06:48:49;;;;;;;13.05;7.65;;;;;;;27.55;29.18;158399.87;1684451;84;21712;-79
2021/03/31 06:51:28;;;;;;;14.58;8.83;;;;;;;27.64;29.26;158423.91;1689525;84;21442;-80
2021/03/31 06:54:20;;;;;;;15.13;9.53;;;;;;;27.74;29.30;158451.80;1697090;83;21224;-80
2021/03/31 06:56:57;;;;;;;13.93;9.00;;;;;;;27.81;29.41;158469.09;1677005;83;21209;-82
2021/03/31 06:59:31;;;;;;;16.50;9.80;;;;;;;27.95;29.27;158507.66;1656541;83;21751;-83
2021/03/31 07:02:06;;;;;;;17.07;9.53;;;;;;;27.96;29.24;158509.00;1646291;85;21244;-82
2021/03/31 07:04:38;;;;;;;16.35;9.28;;;;;;;27.98;29.08;158514.34;1674647;83;21919;-82
2021/03/31 07:07:11;;;;;;;16.00;9.78;;;;;;;28.00;29.15;158520.97;1638244;83;21280;-82
2021/03/31 07:09:45;;;;;;;21.17;10.25;;;;;;;28.02;29.19;158526.30;1642999;84;21280;-80
2021/03/31 07:12:24;;;;;;;17.07;9.73;;;;;;;28.05;29.27;158532.94;1644232;84;21977;-80
2021/03/31 07:14:57;;;;;;;14.68;8.83;;;;;;;28.35;28.81;158612.84;1681461;84;21245;-86
2021/03/31 07:17:31;;;;;;;18.55;9.43;;;;;;;28.19;29.08;158570.20;1642731;84;21351;-86
2021/03/31 07:20:08;;;;;;;17.40;9.90;;;;;;;28.19;29.28;158571.50;1670466;83;21379;-83
2021/03/31 07:22:41;;;;;;;17.67;10.03;;;;;;;28.25;29.25;158587.55;1645474;85;21189;-86
2021/03/31 07:25:16;;;;;;;19.35;10.78;;;;;;;28.32;29.12;158604.84;1652253;84;21379;-83
2021/03/31 07:27:50;;;;;;;19.98;10.95;;;;;;;28.34;29.10;158610.19;1677708;83;21271;-84
2021/03/31 07:30:26;;;;;;;26.17;12.05;;;;;;;28.39;29.09;158623.45;1670844;83;22014;-82
2021/03/31 07:33:15;;;;;;;19.80;11.25;;;;;;;28.44;29.12;158639.45;1630278;84;21226;-83
2021/03/31 07:35:46;;;;;;;18.95;11.28;;;;;;;28.56;29.06;158670.03;1626829;85;21450;-80
2021/03/31 07:38:21;;;;;;;19.07;11.20;;;;;;;28.61;28.91;158684.67;1629084;84;21192;-81
2021/03/31 07:40:53;;;;;;;19.65;10.82;;;;;;;28.55;28.87;158667.36;1627317;85;21874;-83
2021/03/31 07:43:35;;;;;;;21.20;11.03;;;;;;;28.60;28.81;158682.00;1628473;85;21200;-82
2021/03/31 07:46:19;;;;;;;21.90;11.63;;;;;;;28.67;28.84;158699.31;1626157;84;21450;-82
2021/03/31 07:48:53;;;;;;;21.35;10.85;;;;;;;28.72;28.91;158712.62;1627117;85;21695;-81
2021/03/31 07:51:30;;;;;;;19.50;10.55;;;;;;;28.63;28.93;158690.00;1628353;85;21403;-82
2021/03/31 07:54:05;;;;;;;17.70;10.10;;;;;;;28.65;28.82;158693.97;1629020;85;21409;-81
2021/03/31 07:56:43;;;;;;;16.62;9.70;;;;;;;28.66;29.04;158698.00;1630205;84;21252;-81
2021/03/31 07:59:18;;;;;;;17.37;8.98;;;;;;;28.73;28.85;158716.61;1636110;84;21972;-80
2021/03/31 08:01:57;;;;;;;15.35;8.70;;;;;;;28.92;28.76;158765.91;1637800;84;21232;-81
2021/03/31 08:04:30;;;;;;;13.00;8.23;;;;;;;28.97;28.86;158780.56;1605169;87;21226;-81
2021/03/31 08:07:23;;;;;;;16.57;8.63;;;;;;;28.91;28.90;158764.61;1624959;85;21317;-81
2021/03/31 08:10:15;;;;;;;15.68;8.33;;;;;;;28.78;28.95;158729.94;1658448;85;21201;-82
2021/03/31 08:12:47;;;;;;;17.77;9.33;;;;;;;28.92;29.05;158765.91;1656206;83;21891;-81
2021/03/31 08:15:43;;;;;;;16.10;9.35;;;;;;;29.05;28.80;158801.84;1656103;83;21764;-82
2021/03/31 08:18:16;;;;;;;15.72;8.88;;;;;;;29.05;28.70;158800.53;1662694;83;21769;-81
2021/03/31 08:20:49;;;;;;;17.57;9.10;;;;;;;29.17;28.76;158832.48;1647737;85;21386;-81
2021/03/31 08:23:45;;;;;;;17.20;9.25;;;;;;;29.27;28.52;158860.47;1662857;83;21209;-82
2021/03/31 08:26:33;;;;;;;13.70;8.45;;;;;;;29.19;28.64;158837.81;1664584;83;21193;-81
2021/03/31 08:29:23;;;;;;;16.00;9.25;;;;;;;29.61;28.60;158951.06;1639021;85;21205;-82
2021/03/31 08:32:04;;;;;;;16.37;9.20;;;;;;;29.73;28.41;158983.03;1668853;83;21418;-80
2021/03/31 08:34:37;;;;;;;14.45;9.58;;;;;;;29.80;28.38;159001.66;1696607;82;21703;-84
2021/03/31 08:37:22;;;;;;;16.42;9.43;;;;;;;29.94;28.21;159040.33;1699471;82;21335;-81
2021/03/31 08:40:04;;;;;;;19.52;9.50;;;;;;;30.00;28.09;159054.97;1691335;83;21921;-81
2021/03/31 08:42:37;;;;;;;18.50;8.93;;;;;;;30.03;28.04;159062.98;1693924;81;21284;-81
2021/03/31 08:45:12;;;;;;;18.87;9.20;;;;;;;30.81;27.53;159272.27;1699560;82;21331;-84
2021/03/31 08:47:45;;;;;;;16.45;9.73;;;;;;;30.98;27.22;159318.92;1680564;82;21443;-80
2021/03/31 08:50:25;;;;;;;14.83;8.80;;;;;;;30.82;27.63;159274.94;1697330;82;21165;-81
2021/03/31 08:53:09;;;;;;;19.17;10.63;;;;;;;30.82;27.46;159274.94;1636323;85;21795;-81
2021/03/31 08:55:43;;;;;;;19.80;9.83;;;;;;;30.84;27.45;159281.59;1627868;85;21257;-84
2021/03/31 08:58:16;;;;;;;15.65;9.20;;;;;;;30.88;27.47;159290.91;1656946;83;21364;-87
2021/03/31 09:00:53;;;;;;;17.77;9.33;;;;;;;30.98;27.40;159318.92;1626636;85;21309;-81
2021/03/31 09:04:25;;;;;;;20.00;9.50;;;;;;;31.03;27.40;159330.97;1659926;83;21254;-86
2021/03/31 09:06:58;;;;;;;22.22;10.03;;;;;;;31.15;27.33;159364.28;1657008;84;21956;-84
2021/03/31 09:09:39;;;;;;;17.87;10.38;;;;;;;31.19;27.25;159374.97;1626300;85;21250;-81
2021/03/31 09:12:22;;;;;;;18.73;9.30;;;;;;;31.25;27.41;159390.94;1655716;84;21332;-82
2021/03/31 09:14:57;;;;;;;18.60;11.15;;;;;;;31.50;26.95;159458.98;1659990;83;21322;-75
2021/03/31 09:17:32;;;;;;;16.15;9.95;;;;;;;31.29;27.25;159402.98;1644781;85;21313;-82
2021/03/31 09:20:09;;;;;;;18.48;10.45;;;;;;;31.36;27.05;159420.33;1663196;83;21442;-84
2021/03/31 09:22:43;;;;;;;21.80;10.30;;;;;;;31.33;27.09;159412.31;1630669;85;21206;-82
2021/03/31 09:25:19;;;;;;;19.80;10.63;;;;;;;31.31;27.19;159408.28;1658784;83;21273;-83
2021/03/31 09:27:51;;;;;;;20.90;11.15;;;;;;;31.24;27.43;159388.33;1656586;84;21348;-82
2021/03/31 09:30:25;;;;;;;20.15;11.33;;;;;;;31.35;27.16;159417.66;1659258;83;21867;-79
2021/03/31 09:33:06;;;;;;;17.27;10.90;;;;;;;31.26;27.31;159392.31;1641317;85;21414;-79
2021/03/31 09:35:37;;;;;;;20.17;11.83;;;;;;;31.39;26.99;159429.66;1713459;80;21176;-81
2021/03/31 09:38:12;;;;;;;18.73;10.48;;;;;;;31.45;26.99;159444.31;1692757;82;21744;-82
2021/03/31 09:40:47;;;;;;;18.10;10.72;;;;;;;31.49;27.05;159456.31;1665257;83;21442;-80
2021/03/31 09:43:19;;;;;;;17.50;10.38;;;;;;;31.73;27.04;159519.03;1686976;82;21241;-81
2021/03/31 09:45:57;;;;;;;17.20;9.88;;;;;;;31.89;26.88;159561.73;1668837;83;21224;-79
2021/03/31 09:48:29;;;;;;;17.90;10.03;;;;;;;31.93;26.89;159572.42;1694942;82;21208;-83
2021/03/31 09:51:03;;;;;;;15.23;9.35;;;;;;;32.18;26.89;159640.50;1695460;82;21468;-82
2021/03/31 09:53:36;;;;;;;17.35;11.25;;;;;;;32.28;26.71;159668.55;1690577;83;21822;-83
2021/03/31 09:56:12;;;;;;;16.75;9.70;;;;;;;32.25;26.78;159660.53;1714943;82;21709;-82
2021/03/31 09:58:50;;;;;;;21.33;11.20;;;;;;;32.21;26.80;159647.16;1718390;82;21364;-82
2021/03/31 10:01:22;;;;;;;18.30;9.95;;;;;;;32.47;26.64;159719.25;1722651;83;21265;-82
2021/03/31 10:03:55;;;;;;;15.45;9.80;;;;;;;32.52;26.59;159732.56;1709881;82;21708;-82
2021/03/31 10:06:28;;;;;;;15.08;10.00;;;;;;;32.63;26.54;159762.02;1708394;83;21652;-83
2021/03/31 10:09:03;;;;;;;17.27;10.45;;;;;;;32.55;26.65;159739.27;1723920;83;21187;-83
2021/03/31 10:11:38;;;;;;;17.15;9.75;;;;;;;32.65;26.60;159766.00;1715261;83;21197;-83
2021/03/31 10:14:24;;;;;;;17.60;9.63;;;;;;;32.69;26.57;159776.70;1719664;82;21246;-82
2021/03/31 10:16:57;;;;;;;15.40;9.55;;;;;;;32.87;26.49;159824.73;1736105;82;21205;-83
2021/03/31 10:19:29;;;;;;;20.60;11.45;;;;;;;33.10;26.42;159887.56;1715534;82;21356;-83
2021/03/31 10:22:06;;;;;;;14.95;9.48;;;;;;;33.46;26.15;159985.02;1735484;82;21194;-83
2021/03/31 10:24:45;;;;;;;17.30;9.53;;;;;;;33.56;26.11;160011.72;1732255;82;21942;-83
2021/03/31 10:27:20;;;;;;;18.12;11.30;;;;;;;33.64;25.99;160031.81;1729433;82;21228;-83
2021/03/31 10:29:55;;;;;;;16.00;9.30;;;;;;;33.67;25.83;160039.84;1718369;82;21673;-83
2021/03/31 10:32:29;;;;;;;15.28;9.50;;;;;;;33.84;25.68;160085.23;1708571;84;21225;-83
2021/03/31 10:35:02;;;;;;;17.50;11.30;;;;;;;33.65;25.90;160035.81;1675291;82;21230;-83
2021/03/31 10:37:38;;;;;;;16.25;9.33;;;;;;;33.73;25.81;160057.22;1721147;82;21201;-83
2021/03/31 10:54:08;;;;;;;16.10;8.08;;;;;;;33.67;25.25;160039.84;1728686;82;21164;-83
2021/03/31 10:56:49;;;;;;;14.43;9.20;;;;;;;33.65;25.21;160035.81;1737571;82;21191;-83
2021/03/31 10:59:15;;;;;;;18.73;9.33;;;;;;;33.47;25.31;159987.69;1737212;81;21231;-83
2021/03/31 11:01:48;;;;;;;19.67;8.93;;;;;;;33.15;25.45;159900.88;1737287;82;21373;-83
2021/03/31 11:04:20;;;;;;;19.40;9.40;;;;;;;33.11;25.58;159888.88;1737231;82;21746;-83
2021/03/31 11:06:54;;;;;;;15.43;9.00;;;;;;;32.97;25.88;159852.80;1684238;85;21746;-83
2021/03/31 11:09:32;;;;;;;12.93;8.43;;;;;;;33.15;25.78;159900.88;1679835;84;21748;-83
2021/03/31 11:12:00;;;;;;;14.93;8.75;;;;;;;33.23;25.70;159922.22;1676821;84;21187;-82
2021/03/31 11:14:34;;;;;;;13.58;8.85;;;;;;;33.22;25.78;159919.56;1694553;84;21698;-82
2021/03/31 11:17:16;;;;;;;17.48;9.53;;;;;;;33.27;25.79;159932.94;1694682;84;21253;-83
2021/03/31 11:19:54;;;;;;;15.48;9.00;;;;;;;33.16;25.95;159903.56;1694394;84;21828;-83
2021/03/31 11:27:58;;;;;;;16.37;9.83;;;;;;;33.56;25.77;160011.72;1700426;84;21777;-83
2021/03/31 11:30:30;;;;;;;18.87;10.30;;;;;;;33.77;25.72;160066.56;1688233;85;21334;-83
2021/03/31 11:33:03;;;;;;;20.20;10.65;;;;;;;33.69;25.82;160046.52;1688148;84;21347;-83
2021/03/31 11:35:35;;;;;;;17.32;10.05;;;;;;;33.72;25.80;160054.55;1677593;85;21363;-83
2021/03/31 11:38:07;;;;;;;16.67;10.35;;;;;;;33.90;25.63;160101.30;1669622;84;21886;-83
2021/03/31 11:40:39;;;;;;;14.75;9.68;;;;;;;33.90;25.57;160102.61;1652124;86;21217;-83
2021/03/31 11:43:13;;;;;;;19.17;10.18;;;;;;;33.84;25.50;160085.23;1659038;86;21312;-83
2021/03/31 11:45:51;;;;;;;14.28;9.30;;;;;;;33.90;25.57;160101.30;1659219;86;21728;-83
2021/03/31 11:48:20;;;;;;;19.48;10.50;;;;;;;33.81;25.76;160077.22;1659143;86;21729;-83
2021/03/31 11:50:52;;;;;;;22.05;11.15;;;;;;;33.99;25.77;160125.33;1659397;86;21197;-83
2021/03/31 11:53:31;;;;;;;17.42;11.08;;;;;;;33.65;25.98;160034.50;1663239;85;21288;-83
2021/03/31 11:55:59;;;;;;;18.73;11.73;;;;;;;33.89;25.94;160099.92;1680644;84;21557;-83
2021/03/31 11:58:31;;;;;;;18.32;10.72;;;;;;;34.06;25.73;160144.02;1680489;85;21342;-82
2021/03/31 12:01:04;;;;;;;18.52;11.40;;;;;;;34.12;25.52;160161.44;1680690;85;21357;-83
2021/03/31 12:03:36;;;;;;;18.80;11.03;;;;;;;34.36;25.42;160226.94;1680736;83;21211;-83
2021/03/31 12:06:09;;;;;;;21.75;11.75;;;;;;;34.28;25.40;160204.22;1680484;85;21413;-82
2021/03/31 12:08:47;;;;;;;14.93;9.78;;;;;;;34.32;25.33;160216.23;1680724;85;21216;-83
2021/03/31 12:11:16;;;;;;;16.65;11.10;;;;;;;34.06;25.49;160145.37;1680693;83;21347;-83
2021/03/31 12:13:49;;;;;;;19.67;11.08;;;;;;;34.32;25.34;160216.23;1680637;85;21244;-83
2021/03/31 12:16:21;;;;;;;17.15;11.22;;;;;;;34.18;25.45;160178.81;1661521;85;21169;-83
2021/03/31 12:18:54;;;;;;;17.55;10.65;;;;;;;34.10;25.57;160154.78;1659337;86;21855;-83
2021/03/31 12:21:27;;;;;;;18.73;10.63;;;;;;;34.23;25.63;160192.20;1659633;85;21728;-82